createdAt,value
2023-05-10T00:00:26.002Z,12.83
2023-05-10T00:02:28.898Z,12.80
2023-05-10T00:04:30.485Z,12.83
2023-05-10T00:06:32.055Z,12.89
2023-05-10T00:08:33.578Z,12.81
2023-05-10T00:10:35.056Z,12.47
2023-05-10T00:12:36.570Z,12.35
2023-05-10T00:14:38.082Z,12.35
2023-05-10T00:16:39.607Z,12.23
2023-05-10T00:18:42.474Z,12.18
2023-05-10T00:20:43.965Z,12.03
2023-05-10T00:22:45.477Z,11.88
2023-05-10T00:24:47.043Z,11.34
2023-05-10T00:26:48.545Z,11.76
2023-05-10T00:28:49.999Z,11.79
2023-05-10T00:30:51.527Z,11.75
2023-05-10T00:32:53.081Z,11.84
2023-05-10T00:34:56.063Z,11.69
2023-05-10T00:36:57.533Z,11.80
2023-05-10T00:38:59.054Z,11.79
2023-05-10T00:41:00.579Z,11.82
2023-05-10T00:43:02.104Z,11.69
2023-05-10T00:45:04.283Z,11.64
2023-05-10T00:47:06.187Z,11.73
2023-05-10T00:49:07.802Z,11.75
2023-05-10T00:51:10.962Z,11.68
2023-05-10T00:53:13.086Z,11.79
2023-05-10T00:55:17.571Z,11.96
2023-05-10T00:57:19.255Z,11.95
2023-05-10T00:59:21.402Z,12.11
2023-05-10T01:01:23.120Z,12.15
2023-05-10T01:03:25.198Z,12.17
2023-05-10T01:05:26.986Z,12.16
2023-05-10T01:07:30.004Z,12.07
2023-05-10T01:09:32.283Z,12.06
2023-05-10T01:11:34.317Z,12.15
2023-05-10T01:13:38.616Z,12.15
2023-05-10T01:15:40.690Z,12.17
2023-05-10T01:17:45.301Z,12.12
2023-05-10T01:19:46.892Z,12.10
2023-05-10T01:21:56.560Z,12.07
2023-05-10T01:24:39.685Z,12.15
2023-05-10T01:27:13.532Z,12.13
2023-05-10T01:29:26.283Z,12.04
2023-05-10T01:32:19.817Z,12.09
2023-05-10T01:34:28.399Z,11.99
2023-05-10T01:36:32.915Z,11.95
2023-05-10T01:38:42.850Z,11.93
2023-05-10T01:40:49.243Z,12.05
2023-05-10T01:42:55.351Z,11.99
2023-05-10T01:45:01.105Z,12.01
2023-05-10T01:47:06.987Z,11.93
2023-05-10T01:49:10.575Z,11.89
2023-05-10T01:51:14.109Z,11.87
2023-05-10T01:53:19.627Z,11.87
2023-05-10T01:55:23.697Z,12.02
2023-05-10T01:57:28.663Z,11.88
2023-05-10T01:59:34.673Z,11.88
2023-05-10T02:01:38.372Z,11.87
2023-05-10T02:03:42.361Z,11.86
2023-05-10T02:05:44.632Z,11.84
2023-05-10T02:07:48.934Z,11.78
2023-05-10T02:09:51.189Z,11.88
2023-05-10T02:11:54.747Z,12.07
2023-05-10T02:13:58.120Z,12.12
2023-05-10T02:16:00.722Z,12.05
2023-05-10T02:18:04.747Z,11.99
2023-05-10T02:20:08.496Z,11.87
2023-05-10T02:22:10.495Z,11.85
2023-05-10T02:24:16.698Z,11.78
2023-05-10T02:26:21.888Z,11.75
2023-05-10T02:28:25.577Z,11.91
2023-05-10T02:30:27.661Z,12.04
2023-05-10T02:32:30.627Z,12.03
2023-05-10T02:34:32.637Z,11.96
2023-05-10T02:36:35.659Z,12.07
2023-05-10T02:38:37.618Z,12.19
2023-05-10T02:40:42.214Z,12.09
2023-05-10T02:42:45.721Z,12.04
2023-05-10T02:44:49.518Z,12.08
2023-05-10T02:46:50.924Z,12.08
2023-05-10T02:48:52.507Z,11.96
2023-05-10T02:50:56.906Z,11.95
2023-05-10T02:53:02.229Z,11.88
2023-05-10T02:55:06.642Z,11.82
2023-05-10T02:57:14.393Z,11.89
2023-05-10T02:59:15.891Z,11.87
2023-05-10T03:01:17.409Z,11.84
2023-05-10T03:03:19.251Z,11.81
2023-05-10T03:05:21.047Z,11.77
2023-05-10T03:07:22.955Z,11.95
2023-05-10T03:09:24.613Z,11.99
2023-05-10T03:11:40.657Z,12.07
2023-05-10T03:13:49.210Z,12.08
2023-05-10T03:15:58.996Z,11.98
2023-05-10T03:18:02.856Z,12.09
2023-05-10T03:20:07.450Z,12.08
2023-05-10T03:22:11.944Z,11.98
2023-05-10T03:24:14.445Z,11.84
2023-05-10T03:26:24.433Z,11.88
2023-05-10T03:28:27.822Z,11.84
2023-05-10T03:30:33.038Z,11.87
2023-05-10T03:32:34.703Z,11.85
2023-05-10T03:34:42.671Z,11.96
2023-05-10T03:36:44.171Z,11.96
2023-05-10T03:38:46.061Z,11.97
2023-05-10T03:40:47.564Z,11.97
2023-05-10T03:42:49.050Z,11.84
2023-05-10T03:44:50.708Z,11.91
2023-05-10T03:46:53.579Z,12.08
2023-05-10T03:48:55.084Z,12.04
2023-05-10T03:50:56.681Z,11.99
2023-05-10T03:52:58.205Z,12.04
2023-05-10T03:54:59.710Z,12.11
2023-05-10T03:57:01.226Z,12.04
2023-05-10T03:59:02.725Z,12.01
2023-05-10T04:01:04.207Z,12.00
2023-05-10T04:03:07.119Z,11.91
2023-05-10T04:05:09.613Z,11.65
2023-05-10T04:07:11.127Z,11.57
2023-05-10T04:09:12.639Z,11.59
2023-05-10T04:11:14.148Z,11.72
2023-05-10T04:13:15.677Z,11.69
2023-05-10T04:15:17.631Z,11.76
2023-05-10T04:17:19.127Z,11.71
2023-05-10T04:19:22.131Z,11.64
2023-05-10T04:21:23.753Z,11.58
2023-05-10T04:23:25.375Z,11.70
2023-05-10T04:25:26.858Z,11.65
2023-05-10T04:27:28.338Z,11.77
2023-05-10T04:29:29.863Z,11.77
2023-05-10T04:31:31.359Z,11.60
2023-05-10T04:33:33.620Z,11.67
2023-05-10T04:35:37.077Z,11.76
2023-05-10T04:37:38.582Z,11.66
2023-05-10T04:39:42.167Z,11.57
2023-05-10T04:41:44.040Z,11.55
2023-05-10T04:43:45.534Z,11.67
2023-05-10T04:45:47.332Z,11.56
2023-05-10T04:47:48.896Z,11.73
2023-05-10T04:49:50.404Z,11.63
2023-05-10T04:51:53.284Z,11.64
2023-05-10T04:54:05.078Z,11.62
2023-05-10T04:56:07.799Z,11.64
2023-05-10T04:58:09.337Z,11.61
2023-05-10T05:00:11.861Z,11.55
2023-05-10T05:02:13.448Z,11.54
2023-05-10T05:04:14.959Z,11.73
2023-05-10T05:06:16.413Z,11.87
2023-05-10T05:08:19.220Z,11.93
2023-05-10T05:10:20.775Z,11.86
2023-05-10T05:12:22.252Z,11.82
2023-05-10T05:14:23.878Z,11.91
2023-05-10T05:16:25.471Z,11.99
2023-05-10T05:18:26.955Z,12.02
2023-05-10T05:20:29.196Z,12.14
2023-05-10T05:22:30.793Z,12.07
2023-05-10T05:24:37.476Z,11.98
2023-05-10T05:26:39.210Z,12.02
2023-05-10T05:28:40.750Z,12.08
2023-05-10T05:30:42.219Z,12.05
2023-05-10T05:32:43.815Z,12.12
2023-05-10T05:34:45.460Z,11.80
2023-05-10T05:36:46.941Z,12.18
2023-05-10T05:38:48.709Z,12.11
2023-05-10T05:40:51.555Z,12.00
2023-05-10T05:42:53.068Z,12.03
2023-05-10T05:44:54.566Z,12.04
2023-05-10T05:46:56.040Z,12.24
2023-05-10T05:48:57.568Z,12.26
2023-05-10T05:50:59.190Z,12.28
2023-05-10T05:53:00.716Z,12.40
2023-05-10T05:55:02.256Z,12.38
2023-05-10T05:57:05.197Z,12.30
2023-05-10T05:59:06.725Z,12.38
2023-05-10T06:01:08.236Z,12.38
2023-05-10T06:03:09.789Z,12.48
2023-05-10T06:05:11.447Z,12.54
2023-05-10T06:07:12.993Z,12.70
2023-05-10T06:09:14.567Z,12.61
2023-05-10T06:11:16.041Z,12.67
2023-05-10T06:13:18.944Z,12.56
2023-05-10T06:15:20.422Z,12.52
2023-05-10T06:17:21.903Z,12.34
2023-05-10T06:19:23.421Z,12.41
2023-05-10T06:21:25.010Z,12.57
2023-05-10T06:23:26.523Z,12.33
2023-05-10T06:25:28.115Z,12.31
2023-05-10T06:27:29.561Z,12.31
2023-05-10T06:29:32.471Z,12.40
2023-05-10T06:31:34.022Z,12.40
2023-05-10T06:33:35.684Z,12.30
2023-05-10T06:35:37.226Z,12.35
2023-05-10T06:37:38.721Z,12.53
2023-05-10T06:39:40.238Z,12.61
2023-05-10T06:41:41.766Z,12.53
2023-05-10T06:43:43.274Z,12.36
2023-05-10T06:45:46.126Z,12.42
2023-05-10T06:47:47.706Z,12.54
2023-05-10T06:49:49.223Z,12.54
2023-05-10T06:51:50.703Z,12.60
2023-05-10T06:53:52.274Z,12.75
2023-05-10T06:55:53.751Z,12.65
2023-05-10T06:57:55.255Z,12.74
2023-05-10T06:59:56.826Z,12.77
2023-05-10T07:01:59.777Z,12.83
2023-05-10T07:04:01.340Z,12.83
2023-05-10T07:06:03.041Z,12.89
2023-05-10T07:08:04.667Z,12.89
2023-05-10T07:10:07.035Z,12.94
2023-05-10T07:12:10.654Z,13.03
2023-05-10T07:14:13.143Z,13.17
2023-05-10T07:16:14.703Z,13.13
2023-05-10T07:18:17.627Z,13.31
2023-05-10T07:20:19.613Z,13.29
2023-05-10T07:22:21.099Z,13.26
2023-05-10T07:24:22.655Z,13.27
2023-05-10T07:26:24.165Z,13.34
2023-05-10T07:28:25.687Z,13.32
2023-05-10T07:30:27.185Z,13.35
2023-05-10T07:32:28.855Z,13.35
2023-05-10T07:34:31.810Z,13.36
2023-05-10T07:36:33.401Z,13.35
2023-05-10T07:38:34.967Z,13.07
2023-05-10T07:40:36.461Z,13.24
2023-05-10T07:42:37.993Z,13.38
2023-05-10T07:44:39.506Z,13.21
2023-05-10T07:46:41.042Z,13.37
2023-05-10T07:48:42.584Z,13.42
2023-05-10T07:50:45.445Z,13.43
2023-05-10T07:52:46.902Z,13.28
2023-05-10T07:54:48.413Z,13.28
2023-05-10T07:56:49.902Z,13.42
2023-05-10T07:58:51.722Z,13.46
2023-05-10T08:00:53.453Z,13.44
2023-05-10T08:02:55.042Z,13.45
2023-05-10T08:04:56.606Z,13.54
2023-05-10T08:06:59.470Z,13.66
2023-05-10T08:09:01.058Z,13.46
2023-05-10T08:11:02.862Z,13.54
2023-05-10T08:13:04.412Z,13.71
2023-05-10T08:15:07.144Z,13.51
2023-05-10T08:17:08.614Z,13.62
2023-05-10T08:19:10.159Z,13.79
2023-05-10T08:21:11.884Z,13.83
2023-05-10T08:23:14.750Z,13.79
2023-05-10T08:25:16.679Z,13.68
2023-05-10T08:27:18.396Z,13.66
2023-05-10T08:29:19.917Z,13.43
2023-05-10T08:31:21.521Z,13.73
2023-05-10T08:33:23.076Z,13.54
2023-05-10T08:35:24.610Z,13.47
2023-05-10T08:37:26.155Z,13.49
2023-05-10T08:39:30.651Z,13.46
2023-05-10T08:41:34.479Z,13.46
2023-05-10T08:43:36.916Z,13.52
2023-05-10T08:45:39.664Z,13.43
2023-05-10T08:47:41.987Z,13.09
2023-05-10T08:49:44.422Z,13.25
2023-05-10T08:51:51.931Z,13.38
2023-05-10T08:53:53.623Z,13.53
2023-05-10T08:55:56.714Z,13.59
2023-05-10T08:57:58.251Z,13.74
2023-05-10T09:00:01.880Z,13.67
2023-05-10T09:02:05.778Z,13.58
2023-05-10T09:04:07.492Z,13.64
2023-05-10T09:06:09.354Z,13.79
2023-05-10T09:08:11.647Z,13.46
2023-05-10T09:10:14.395Z,13.14
2023-05-10T09:12:17.258Z,13.15
2023-05-10T09:14:19.491Z,13.29
2023-05-10T09:16:22.442Z,13.26
2023-05-10T09:18:26.024Z,13.15
2023-05-10T09:20:29.637Z,13.23
2023-05-10T09:22:31.242Z,13.45
2023-05-10T09:24:32.749Z,13.50
2023-05-10T09:26:34.328Z,13.76
2023-05-10T09:28:52.085Z,13.75
2023-05-10T09:30:54.262Z,13.66
2023-05-10T09:32:56.806Z,13.73
2023-05-10T09:34:58.357Z,13.75
2023-05-10T09:37:01.081Z,13.64
2023-05-10T09:39:03.405Z,13.65
2023-05-10T09:41:05.022Z,13.86
2023-05-10T09:43:08.350Z,14.06
2023-05-10T09:45:11.339Z,13.98
2023-05-10T09:47:18.101Z,14.01
2023-05-10T09:49:20.124Z,13.93
2023-05-10T09:51:22.340Z,14.13
2023-05-10T09:53:23.838Z,13.84
2023-05-10T09:55:27.472Z,13.70
2023-05-10T09:57:28.951Z,13.60
2023-05-10T09:59:30.597Z,13.82
2023-05-10T10:01:34.329Z,13.81
2023-05-10T10:03:42.336Z,13.97
2023-05-10T10:05:45.372Z,13.74
2023-05-10T10:07:47.122Z,13.90
2023-05-10T10:09:48.796Z,13.93
2023-05-10T10:11:50.467Z,14.14
2023-05-10T10:13:52.140Z,14.22
2023-05-10T10:15:55.563Z,14.55
2023-05-10T10:17:58.448Z,14.47
2023-05-10T10:20:00.412Z,14.34
2023-05-10T10:22:02.183Z,14.25
2023-05-10T10:24:03.970Z,14.13
2023-05-10T10:26:06.111Z,14.32
2023-05-10T10:28:22.392Z,14.31
2023-05-10T10:30:30.002Z,14.66
2023-05-10T10:33:00.614Z,14.54
2023-05-10T10:35:04.203Z,14.36
2023-05-10T10:37:06.916Z,14.40
2023-05-10T10:39:11.248Z,14.53
2023-05-10T10:41:29.160Z,14.07
2023-05-10T10:43:30.676Z,13.49
2023-05-10T10:45:32.216Z,13.04
2023-05-10T10:47:33.826Z,12.91
2023-05-10T10:49:42.880Z,13.19
2023-05-10T10:52:22.077Z,12.86
2023-05-10T10:54:28.725Z,12.72
2023-05-10T10:56:30.218Z,12.57
2023-05-10T10:58:32.422Z,12.35
2023-05-10T11:00:36.227Z,12.33
2023-05-10T11:02:45.282Z,12.07
2023-05-10T11:04:46.942Z,12.26
2023-05-10T11:06:49.985Z,12.11
2023-05-10T11:08:52.815Z,12.61
2023-05-10T11:11:05.623Z,12.73
2023-05-10T11:13:08.742Z,12.77
2023-05-10T11:15:10.526Z,12.84
2023-05-10T11:17:24.905Z,12.41
2023-05-10T11:19:28.682Z,12.49
2023-05-10T11:21:30.506Z,12.49
2023-05-10T11:23:48.110Z,12.34
2023-05-10T11:25:50.390Z,12.41
2023-05-10T11:27:52.586Z,12.43
2023-05-10T11:29:54.128Z,12.47
2023-05-10T11:31:58.734Z,12.46
2023-05-10T11:34:01.264Z,12.69
2023-05-10T11:36:02.789Z,12.55
2023-05-10T11:38:06.693Z,12.47
2023-05-10T11:40:11.581Z,12.64
2023-05-10T11:42:13.317Z,12.92
2023-05-10T11:44:14.913Z,13.04
2023-05-10T11:46:19.137Z,13.35
2023-05-10T11:48:20.765Z,13.42
2023-05-10T11:50:22.493Z,13.72
2023-05-10T11:52:24.664Z,13.82
2023-05-10T11:54:26.158Z,13.86
2023-05-10T11:56:29.018Z,14.09
2023-05-10T11:58:31.705Z,14.13
2023-05-10T12:00:33.497Z,14.14
2023-05-10T12:02:35.241Z,14.31
2023-05-10T12:04:37.084Z,13.97
2023-05-10T12:06:41.608Z,13.92
2023-05-10T12:08:46.267Z,13.99
2023-05-10T12:10:49.406Z,14.09
2023-05-10T12:12:57.680Z,13.98
2023-05-10T12:14:59.155Z,14.07
2023-05-10T12:17:00.708Z,14.21
2023-05-10T12:19:02.331Z,14.14
2023-05-10T12:21:04.864Z,13.99
2023-05-10T12:23:06.804Z,14.05
2023-05-10T12:25:10.158Z,13.85
2023-05-10T12:27:11.733Z,13.91
2023-05-10T12:29:15.683Z,13.78
2023-05-10T12:31:17.362Z,13.78
2023-05-10T12:33:18.873Z,13.84
2023-05-10T12:35:21.053Z,13.92
2023-05-10T12:37:26.858Z,13.64
2023-05-10T12:39:39.912Z,13.70
2023-05-10T12:41:43.442Z,13.68
2023-05-10T12:43:46.218Z,13.66
2023-05-10T12:45:49.309Z,13.52
2023-05-10T12:47:50.854Z,13.85
2023-05-10T12:49:52.373Z,14.05
2023-05-10T12:51:53.850Z,14.24
2023-05-10T12:53:55.352Z,14.46
2023-05-10T12:55:57.052Z,14.42
2023-05-10T12:57:58.704Z,14.44
2023-05-10T13:00:00.207Z,14.42
2023-05-10T13:02:03.126Z,14.19
2023-05-10T13:04:04.719Z,14.20
2023-05-10T13:06:06.676Z,14.24
2023-05-10T13:08:08.198Z,14.23
2023-05-10T13:10:10.230Z,14.44
2023-05-10T13:12:11.748Z,14.37
2023-05-10T13:14:13.285Z,14.32
2023-05-10T13:16:14.805Z,14.49
2023-05-10T13:18:17.746Z,14.67
2023-05-10T13:20:19.504Z,14.58
2023-05-10T13:22:32.476Z,14.63
2023-05-10T13:24:38.276Z,14.71
2023-05-10T13:26:39.848Z,14.71
2023-05-10T13:28:41.365Z,14.67
2023-05-10T13:30:42.905Z,14.82
2023-05-10T13:32:44.418Z,14.95
2023-05-10T13:34:47.384Z,14.74
2023-05-10T13:36:49.214Z,14.64
2023-05-10T13:38:51.912Z,14.54
2023-05-10T13:40:53.517Z,14.60
2023-05-10T13:42:55.296Z,14.73
2023-05-10T13:44:56.849Z,14.61
2023-05-10T13:46:58.376Z,14.51
2023-05-10T13:48:59.896Z,14.62
2023-05-10T13:51:02.730Z,14.75
2023-05-10T13:53:04.210Z,14.86
2023-05-10T13:55:06.213Z,14.88
2023-05-10T13:57:07.912Z,14.94
2023-05-10T13:59:09.399Z,14.96
2023-05-10T14:01:10.892Z,14.79
2023-05-10T14:03:12.740Z,14.95
2023-05-10T14:05:14.357Z,14.52
2023-05-10T14:07:17.287Z,14.49
2023-05-10T14:09:18.794Z,14.34
2023-05-10T14:11:21.585Z,14.50
2023-05-10T14:13:24.687Z,14.75
2023-05-10T14:15:26.179Z,14.76
2023-05-10T14:17:27.702Z,14.69
2023-05-10T14:19:29.226Z,14.66
2023-05-10T14:21:30.745Z,14.30
2023-05-10T14:23:33.570Z,14.64
2023-05-10T14:25:35.255Z,14.42
2023-05-10T14:27:36.768Z,14.66
2023-05-10T14:29:38.243Z,14.87
2023-05-10T14:31:41.386Z,15.13
2023-05-10T14:33:42.927Z,15.04
2023-05-10T14:35:45.295Z,15.07
2023-05-10T14:37:46.836Z,15.20
2023-05-10T14:39:49.667Z,15.30
2023-05-10T14:41:51.271Z,15.42
2023-05-10T14:43:52.960Z,15.47
2023-05-10T14:45:54.488Z,15.47
2023-05-10T14:47:56.056Z,15.47
2023-05-10T14:49:57.550Z,15.60
2023-05-10T14:51:59.024Z,15.36
2023-05-10T14:54:00.556Z,15.30
2023-05-10T14:56:03.627Z,15.34
2023-05-10T14:58:05.123Z,14.77
2023-05-10T15:00:07.843Z,14.58
2023-05-10T15:02:10.010Z,14.26
2023-05-10T15:04:11.990Z,14.31
2023-05-10T15:06:15.398Z,14.57
2023-05-10T15:08:16.875Z,14.83
2023-05-10T15:10:19.062Z,14.77
2023-05-10T15:12:21.890Z,14.30
2023-05-10T15:14:23.403Z,14.45
2023-05-10T15:16:25.166Z,14.62
2023-05-10T15:18:26.879Z,14.51
2023-05-10T15:20:28.419Z,14.40
2023-05-10T15:22:30.737Z,14.35
2023-05-10T15:24:33.509Z,14.23
2023-05-10T15:26:35.104Z,14.52
2023-05-10T15:28:37.971Z,14.85
2023-05-10T15:30:39.511Z,14.86
2023-05-10T15:32:41.224Z,14.76
2023-05-10T15:34:42.739Z,14.63
2023-05-10T15:36:44.877Z,14.71
2023-05-10T15:38:46.420Z,14.34
2023-05-10T15:40:47.934Z,14.47
2023-05-10T15:42:49.459Z,14.73
2023-05-10T15:44:52.440Z,14.73
2023-05-10T15:46:54.007Z,14.57
2023-05-10T15:48:55.532Z,14.66
2023-05-10T15:50:57.027Z,14.71
2023-05-10T15:52:58.536Z,14.99
2023-05-10T15:55:00.033Z,14.98
2023-05-10T15:57:01.522Z,15.09
2023-05-10T15:59:03.148Z,15.21
2023-05-10T16:01:06.360Z,15.25
2023-05-10T16:03:08.000Z,15.40
2023-05-10T16:05:10.166Z,15.46
2023-05-10T16:07:11.644Z,15.22
2023-05-10T16:09:13.147Z,15.36
2023-05-10T16:11:14.644Z,15.35
2023-05-10T16:13:16.175Z,15.10
2023-05-10T16:15:17.967Z,14.87
2023-05-10T16:17:21.064Z,14.72
2023-05-10T16:19:22.663Z,14.73
2023-05-10T16:21:24.374Z,14.71
2023-05-10T16:23:26.061Z,14.51
2023-05-10T16:25:27.681Z,14.25
2023-05-10T16:27:29.286Z,14.16
2023-05-10T16:29:30.830Z,14.22
2023-05-10T16:31:32.352Z,14.29
2023-05-10T16:33:35.211Z,14.24
2023-05-10T16:35:36.741Z,14.25
2023-05-10T16:37:38.222Z,14.29
2023-05-10T16:39:39.694Z,14.11
2023-05-10T16:41:41.195Z,13.90
2023-05-10T16:43:42.662Z,13.87
2023-05-10T16:45:44.165Z,13.98
2023-05-10T16:47:45.670Z,14.01
2023-05-10T16:49:48.492Z,13.89
2023-05-10T16:51:49.986Z,13.68
2023-05-10T16:53:51.455Z,13.76
2023-05-10T16:55:52.931Z,13.55
2023-05-10T16:57:54.400Z,13.56
2023-05-10T16:59:55.953Z,13.71
2023-05-10T17:01:57.531Z,13.70
2023-05-10T17:03:59.147Z,13.63
2023-05-10T17:06:02.442Z,13.68
2023-05-10T17:08:03.932Z,13.58
2023-05-10T17:10:06.608Z,13.55
2023-05-10T17:12:08.197Z,13.43
2023-05-10T17:14:09.662Z,13.41
2023-05-10T17:16:11.252Z,13.41
2023-05-10T17:18:12.819Z,13.50
2023-05-10T17:20:14.333Z,13.65
2023-05-10T17:22:17.204Z,13.55
2023-05-10T17:24:18.697Z,13.52
2023-05-10T17:26:20.213Z,13.57
2023-05-10T17:28:21.823Z,13.68
2023-05-10T17:30:23.471Z,13.78
2023-05-10T17:32:25.624Z,13.68
2023-05-10T17:34:27.153Z,13.69
2023-05-10T17:36:28.660Z,13.58
2023-05-10T17:38:31.516Z,13.45
2023-05-10T17:40:33.033Z,13.48
2023-05-10T17:42:34.624Z,13.43
2023-05-10T17:44:36.115Z,13.44
2023-05-10T17:46:37.598Z,13.49
2023-05-10T17:48:39.089Z,13.52
2023-05-10T17:50:41.869Z,13.54
2023-05-10T17:52:43.332Z,13.49
2023-05-10T17:54:46.219Z,13.38
2023-05-10T17:56:47.749Z,13.39
2023-05-10T17:58:49.246Z,13.31
2023-05-10T18:00:52.064Z,13.22
2023-05-10T18:02:53.650Z,13.19
2023-05-10T18:04:56.746Z,13.13
2023-05-10T18:06:59.707Z,13.13
2023-05-10T18:09:01.220Z,13.13
2023-05-10T18:11:04.080Z,13.13
2023-05-10T18:13:08.055Z,12.98
2023-05-10T18:15:10.917Z,12.88
2023-05-10T18:17:12.593Z,12.86
2023-05-10T18:19:14.271Z,12.81
2023-05-10T18:21:16.561Z,12.90
2023-05-10T18:23:18.078Z,12.89
2023-05-10T18:25:19.725Z,12.71
2023-05-10T18:27:22.815Z,12.63
2023-05-10T18:29:24.337Z,12.68
2023-05-10T18:31:25.883Z,12.72
2023-05-10T18:33:27.411Z,12.76
2023-05-10T18:35:29.026Z,12.80
2023-05-10T18:37:30.558Z,12.82
2023-05-10T18:39:32.112Z,12.72
2023-05-10T18:41:33.722Z,12.71
2023-05-10T18:43:36.607Z,12.75
2023-05-10T18:45:38.221Z,12.58
2023-05-10T18:47:39.821Z,12.73
2023-05-10T18:49:41.388Z,12.78
2023-05-10T18:51:42.869Z,12.74
2023-05-10T18:53:44.382Z,12.65
2023-05-10T18:55:46.634Z,12.73
2023-05-10T18:57:48.284Z,12.59
2023-05-10T18:59:51.125Z,12.59
2023-05-10T19:01:54.221Z,12.55
2023-05-10T19:03:56.454Z,12.63
2023-05-10T19:05:57.989Z,12.66
2023-05-10T19:07:59.495Z,12.67
2023-05-10T19:10:01.006Z,12.53
2023-05-10T19:12:02.548Z,12.51
2023-05-10T19:14:04.084Z,12.45
2023-05-10T19:16:13.382Z,12.44
2023-05-10T19:18:15.258Z,12.50
2023-05-10T19:20:16.803Z,12.41
2023-05-10T19:22:31.923Z,12.41
2023-05-10T19:24:42.148Z,12.48
2023-05-10T19:26:43.678Z,12.41
2023-05-10T19:28:45.471Z,12.41
2023-05-10T19:30:46.920Z,12.27
2023-05-10T19:32:49.931Z,12.33
2023-05-10T19:34:51.825Z,12.36
2023-05-10T19:36:54.039Z,12.01
2023-05-10T19:38:55.669Z,12.28
2023-05-10T19:40:57.175Z,12.28
2023-05-10T19:42:58.678Z,12.16
2023-05-10T19:45:00.178Z,12.22
2023-05-10T19:47:01.755Z,12.01
2023-05-10T19:49:04.626Z,12.19
2023-05-10T19:51:09.325Z,12.31
2023-05-10T19:53:11.742Z,12.29
2023-05-10T19:55:24.826Z,12.27
2023-05-10T19:57:26.290Z,12.30
2023-05-10T19:59:27.874Z,12.29
2023-05-10T20:01:29.604Z,12.25
2023-05-10T20:03:31.150Z,12.22
2023-05-10T20:05:34.092Z,12.20
2023-05-10T20:07:36.410Z,12.05
2023-05-10T20:09:37.916Z,12.11
2023-05-10T20:11:39.396Z,12.17
2023-05-10T20:13:40.917Z,12.20
2023-05-10T20:15:42.474Z,12.15
2023-05-10T20:17:44.042Z,11.95
2023-05-10T20:19:45.570Z,11.90
2023-05-10T20:21:48.441Z,11.94
2023-05-10T20:23:50.005Z,11.77
2023-05-10T20:25:51.819Z,11.69
2023-05-10T20:27:53.510Z,11.69
2023-05-10T20:29:54.990Z,11.69
2023-05-10T20:31:56.572Z,11.76
2023-05-10T20:33:58.199Z,11.80
2023-05-10T20:35:59.707Z,11.86
2023-05-10T20:38:02.572Z,11.91
2023-05-10T20:40:04.736Z,11.84
2023-05-10T20:42:06.485Z,11.81
2023-05-10T20:44:08.178Z,11.80
2023-05-10T20:46:09.810Z,11.91
2023-05-10T20:48:11.426Z,11.84
2023-05-10T20:50:12.996Z,11.67
2023-05-10T20:52:14.679Z,11.78
2023-05-10T20:54:17.596Z,11.72
2023-05-10T20:56:19.101Z,11.65
2023-05-10T20:58:20.676Z,11.77
2023-05-10T21:00:22.199Z,11.70
2023-05-10T21:02:23.778Z,11.70
2023-05-10T21:04:25.480Z,11.85
2023-05-10T21:06:27.059Z,11.84
2023-05-10T21:08:28.562Z,11.69
2023-05-10T21:10:31.451Z,11.58
2023-05-10T21:12:33.034Z,11.55
2023-05-10T21:14:34.520Z,11.50
2023-05-10T21:16:36.445Z,11.64
2023-05-10T21:18:38.076Z,11.63
2023-05-10T21:20:39.569Z,11.51
2023-05-10T21:22:41.085Z,11.38
2023-05-10T21:24:42.598Z,11.46
2023-05-10T21:26:45.477Z,11.43
2023-05-10T21:28:46.980Z,11.31
2023-05-10T21:30:48.513Z,11.36
2023-05-10T21:32:50.070Z,11.45
2023-05-10T21:34:51.602Z,11.26
2023-05-10T21:36:54.358Z,11.23
2023-05-10T21:38:55.844Z,11.21
2023-05-10T21:40:57.340Z,11.31
2023-05-10T21:43:00.178Z,11.20
2023-05-10T21:45:01.689Z,11.23
2023-05-10T21:47:03.364Z,11.34
2023-05-10T21:49:04.865Z,11.23
2023-05-10T21:51:06.357Z,11.21
2023-05-10T21:53:07.877Z,11.18
2023-05-10T21:55:10.021Z,10.91
2023-05-10T21:57:11.520Z,10.99
2023-05-10T21:59:14.477Z,10.99
2023-05-10T22:01:15.957Z,11.04
2023-05-10T22:03:17.944Z,10.93
2023-05-10T22:05:19.546Z,10.90
2023-05-10T22:07:21.060Z,10.93
2023-05-10T22:09:22.593Z,10.95
2023-05-10T22:11:24.161Z,10.99
2023-05-10T22:13:25.701Z,10.99
2023-05-10T22:15:28.660Z,11.12
2023-05-10T22:17:30.244Z,11.11
2023-05-10T22:19:31.818Z,11.17
2023-05-10T22:21:33.319Z,11.12
2023-05-10T22:23:34.888Z,11.05
2023-05-10T22:25:36.387Z,10.89
2023-05-10T22:27:37.897Z,10.87
2023-05-10T22:29:39.435Z,10.87
2023-05-10T22:31:42.353Z,11.06
2023-05-10T22:33:43.886Z,11.06
2023-05-10T22:35:45.660Z,10.94
2023-05-10T22:37:47.120Z,10.73
2023-05-10T22:39:48.898Z,10.71
2023-05-10T22:41:50.387Z,10.62
2023-05-10T22:43:51.901Z,10.51
2023-05-10T22:45:53.435Z,10.41
2023-05-10T22:47:56.561Z,10.42
2023-05-10T22:49:58.085Z,10.46
2023-05-10T22:51:59.630Z,10.49
2023-05-10T22:54:01.217Z,10.60
2023-05-10T22:56:02.812Z,10.54
2023-05-10T22:58:04.373Z,10.60
2023-05-10T23:00:07.345Z,10.55
2023-05-10T23:02:09.575Z,10.66
2023-05-10T23:04:12.575Z,10.64
2023-05-10T23:06:14.094Z,10.73
2023-05-10T23:08:15.620Z,10.84
2023-05-10T23:10:17.312Z,10.77
2023-05-10T23:12:18.924Z,10.70
2023-05-10T23:14:20.413Z,10.65
2023-05-10T23:16:21.957Z,10.61
2023-05-10T23:18:23.499Z,10.73
2023-05-10T23:20:26.478Z,10.56
2023-05-10T23:22:27.974Z,10.56
2023-05-10T23:24:29.456Z,10.62
2023-05-10T23:26:30.958Z,10.56
2023-05-10T23:28:32.433Z,10.59
2023-05-10T23:30:33.941Z,10.76
2023-05-10T23:32:35.456Z,10.69
2023-05-10T23:34:37.009Z,10.59
2023-05-10T23:36:39.837Z,10.59
2023-05-10T23:38:41.339Z,10.55
2023-05-10T23:40:42.849Z,10.58
2023-05-10T23:42:44.318Z,10.56
2023-05-10T23:44:45.852Z,10.60
2023-05-10T23:46:47.332Z,10.83
2023-05-10T23:48:48.815Z,10.87
2023-05-10T23:50:50.517Z,10.92
2023-05-10T23:52:53.361Z,10.78
2023-05-10T23:54:54.915Z,10.71
2023-05-10T23:56:56.446Z,10.86
2023-05-10T23:58:57.924Z,10.80
